Time;durP1;ratioP1;P1;durP2;ratioP2;P2;SDS_P1;SDS_P2;PMS_P1;PMS_P2;Temp;Humidity;BMP_temperature;BMP_pressure;BME280_temperature;BME280_humidity;BME280_pressure;Samples;Min_cycle;Max_cycle;Signal;HPM_P1;HPM_P2
2023/05/05 00:00:37;;;;;;;12.75;3.40;;;;;;;;;;5007376;28;20036;-81
2023/05/05 00:03:03;;;;;;;10.93;2.90;;;;;;;;;;4979956;28;20121;-77
2023/05/05 00:05:29;;;;;;;7.70;2.58;;;;;;;;;;5007544;28;20113;-78
2023/05/05 00:07:55;;;;;;;9.38;2.83;;;;;;;;;;5002155;28;20379;-79
2023/05/05 00:10:21;;;;;;;9.88;3.00;;;;;;;;;;5009451;28;20594;-78
2023/05/05 00:12:47;;;;;;;8.07;2.63;;;;;;;;;;5003976;28;20862;-77
2023/05/05 00:15:13;;;;;;;11.10;3.00;;;;;;;;;;5003948;28;20037;-81
2023/05/05 00:17:40;;;;;;;8.05;2.50;;;;;;;;;;5001153;28;20038;-80
2023/05/05 00:20:07;;;;;;;7.72;2.78;;;;;;;;;;5002724;28;20033;-78
2023/05/05 00:22:33;;;;;;;6.35;2.53;;;;;;;;;;4978554;28;20256;-79
2023/05/05 00:24:59;;;;;;;7.97;3.78;;;;;;;;;;4998704;28;20034;-78
2023/05/05 00:27:25;;;;;;;8.27;2.65;;;;;;;;;;5005632;28;20034;-79
2023/05/05 00:29:51;;;;;;;11.50;3.28;;;;;;;;;;5009608;28;20491;-79
2023/05/05 00:32:17;;;;;;;13.55;2.95;;;;;;;;;;5002939;28;20058;-79
2023/05/05 00:34:43;;;;;;;12.82;3.75;;;;;;;;;;5009285;28;20030;-79
2023/05/05 00:37:10;;;;;;;9.48;2.80;;;;;;;;;;5004656;28;20045;-80
2023/05/05 00:39:36;;;;;;;3.88;2.25;;;;;;;;;;5008304;28;20049;-83
2023/05/05 00:42:02;;;;;;;8.73;2.83;;;;;;;;;;4990775;28;20038;-78
2023/05/05 00:44:39;;;;;;;8.07;3.00;;;;;;;;;;5004393;28;20044;-81
2023/05/05 00:47:05;;;;;;;4.97;2.75;;;;;;;;;;4996792;28;20029;-79
2023/05/05 00:49:32;;;;;;;9.32;3.22;;;;;;;;;;5005446;28;20083;-79
2023/05/05 00:51:58;;;;;;;8.18;3.13;;;;;;;;;;5010732;28;20227;-78
2023/05/05 00:54:25;;;;;;;5.07;3.05;;;;;;;;;;4992403;28;20038;-79
2023/05/05 00:56:51;;;;;;;6.28;2.95;;;;;;;;;;4991371;28;20471;-79
2023/05/05 00:59:17;;;;;;;6.18;2.92;;;;;;;;;;5003177;28;20040;-78
2023/05/05 01:01:43;;;;;;;10.23;2.85;;;;;;;;;;5012039;28;20038;-78
2023/05/05 01:04:09;;;;;;;7.78;2.90;;;;;;;;;;5003034;28;20108;-78
2023/05/05 01:06:41;;;;;;;8.90;3.33;;;;;;;;;;5009272;28;20029;-78
2023/05/05 01:09:07;;;;;;;8.98;2.95;;;;;;;;;;5005008;28;20125;-79
2023/05/05 01:11:39;;;;;;;8.45;3.45;;;;;;;;;;4988801;28;20073;-79
2023/05/05 01:14:19;;;;;;;6.28;2.72;;;;;;;;;;5004777;28;20065;-79
2023/05/05 01:16:57;;;;;;;7.35;3.42;;;;;;;;;;5005750;28;20038;-77
2023/05/05 01:19:26;;;;;;;5.85;2.78;;;;;;;;;;5004707;28;20121;-78
2023/05/05 01:21:59;;;;;;;9.98;3.67;;;;;;;;;;5009216;28;20027;-77
2023/05/05 01:24:35;;;;;;;7.65;2.80;;;;;;;;;;5002593;28;20033;-79
2023/05/05 01:27:04;;;;;;;3.95;3.15;;;;;;;;;;4997229;28;20165;-78
2023/05/05 01:29:37;;;;;;;7.70;3.92;;;;;;;;;;4986849;28;20132;-78
2023/05/05 01:32:10;;;;;;;9.43;3.47;;;;;;;;;;5007094;28;20116;-79
2023/05/05 01:34:41;;;;;;;7.07;3.28;;;;;;;;;;5003603;28;20112;-79
2023/05/05 01:37:16;;;;;;;11.27;3.30;;;;;;;;;;5005225;28;20105;-78
2023/05/05 01:39:43;;;;;;;8.02;3.50;;;;;;;;;;4997742;28;20559;-78
2023/05/05 01:42:13;;;;;;;7.57;3.33;;;;;;;;;;5005676;28;20114;-79
2023/05/05 01:44:42;;;;;;;10.65;3.55;;;;;;;;;;4998030;28;20029;-78
2023/05/05 01:47:09;;;;;;;11.23;3.42;;;;;;;;;;5006420;28;20021;-78
2023/05/05 01:49:36;;;;;;;4.40;2.72;;;;;;;;;;5007185;28;20034;-78
2023/05/05 01:52:04;;;;;;;9.93;3.00;;;;;;;;;;5008072;28;20030;-79
2023/05/05 01:54:31;;;;;;;8.70;3.13;;;;;;;;;;5003922;28;20415;-79
2023/05/05 01:56:58;;;;;;;8.00;2.70;;;;;;;;;;5000650;28;20026;-79
2023/05/05 01:59:25;;;;;;;9.15;3.50;;;;;;;;;;5004239;28;20435;-80
2023/05/05 02:01:51;;;;;;;10.80;3.30;;;;;;;;;;4999904;28;20040;-79
2023/05/05 02:04:21;;;;;;;7.78;3.40;;;;;;;;;;5000944;28;20039;-79
2023/05/05 02:06:50;;;;;;;11.40;4.13;;;;;;;;;;5022458;28;20104;-79
2023/05/05 02:09:16;;;;;;;9.90;3.15;;;;;;;;;;5000975;28;20482;-79
2023/05/05 02:11:42;;;;;;;3.85;3.08;;;;;;;;;;4998357;28;20034;-80
2023/05/05 02:14:10;;;;;;;5.35;2.85;;;;;;;;;;5002027;28;20029;-79
2023/05/05 02:16:36;;;;;;;9.85;3.15;;;;;;;;;;5001270;28;20026;-80
2023/05/05 02:19:05;;;;;;;13.38;3.13;;;;;;;;;;5003411;28;20057;-79
2023/05/05 02:21:32;;;;;;;7.43;3.40;;;;;;;;;;5003106;28;20068;-79
2023/05/05 02:23:58;;;;;;;8.40;3.75;;;;;;;;;;5001014;28;20027;-77
2023/05/05 02:26:28;;;;;;;4.95;3.00;;;;;;;;;;5003555;28;20034;-78
2023/05/05 02:28:54;;;;;;;9.00;3.03;;;;;;;;;;5004731;28;20534;-79
2023/05/05 02:31:22;;;;;;;4.78;3.00;;;;;;;;;;5006760;28;20138;-77
2023/05/05 02:33:48;;;;;;;8.77;4.40;;;;;;;;;;5007563;28;20030;-79
2023/05/05 02:36:17;;;;;;;7.60;3.97;;;;;;;;;;5022617;28;20030;-78
2023/05/05 02:38:43;;;;;;;8.65;3.22;;;;;;;;;;5002481;28;20117;-79
2023/05/05 02:41:12;;;;;;;9.63;3.30;;;;;;;;;;5004666;28;20036;-79
2023/05/05 02:43:40;;;;;;;7.35;3.88;;;;;;;;;;5006924;28;20026;-79
2023/05/05 02:46:06;;;;;;;8.90;3.58;;;;;;;;;;5002131;28;20030;-79
2023/05/05 02:48:32;;;;;;;9.18;3.42;;;;;;;;;;5007518;28;20038;-79
2023/05/05 02:50:58;;;;;;;6.57;3.28;;;;;;;;;;5006038;28;20451;-79
2023/05/05 02:53:25;;;;;;;7.13;3.17;;;;;;;;;;5002305;28;20037;-79
2023/05/05 02:55:53;;;;;;;8.55;3.55;;;;;;;;;;4974903;28;20408;-79
2023/05/05 02:58:25;;;;;;;7.28;3.78;;;;;;;;;;5004483;28;20045;-79
2023/05/05 03:01:03;;;;;;;7.00;3.42;;;;;;;;;;5007254;28;20026;-79
2023/05/05 03:03:35;;;;;;;10.85;3.50;;;;;;;;;;5011924;28;20037;-78
2023/05/05 03:06:05;;;;;;;5.50;2.90;;;;;;;;;;5004825;28;20039;-78
2023/05/05 03:08:42;;;;;;;7.80;3.72;;;;;;;;;;5005603;28;20308;-78
2023/05/05 03:11:14;;;;;;;9.48;3.45;;;;;;;;;;4991833;28;20048;-78
2023/05/05 03:13:41;;;;;;;;;;;;;;;;;;4994479;28;20084;-79
2023/05/05 03:16:08;;;;;;;8.18;3.47;;;;;;;;;;5010725;28;19932;-78
2023/05/05 03:18:36;;;;;;;6.18;3.42;;;;;;;;;;5011080;28;20030;-79
2023/05/05 03:21:07;;;;;;;11.40;3.50;;;;;;;;;;5008342;28;20025;-78
2023/05/05 03:23:33;;;;;;;11.48;4.53;;;;;;;;;;5007126;28;20068;-80
2023/05/05 03:25:59;;;;;;;7.70;3.33;;;;;;;;;;5008483;28;20053;-78
2023/05/05 03:28:26;;;;;;;6.13;4.05;;;;;;;;;;5011841;28;20475;-78
2023/05/05 03:30:52;;;;;;;11.48;4.25;;;;;;;;;;5008874;28;20495;-79
2023/05/05 03:33:18;;;;;;;7.72;4.15;;;;;;;;;;5007800;28;20088;-79
2023/05/05 03:35:44;;;;;;;8.77;4.00;;;;;;;;;;5007121;28;20056;-80
2023/05/05 03:38:10;;;;;;;12.95;4.35;;;;;;;;;;5010336;28;20038;-80
2023/05/05 03:40:36;;;;;;;11.02;4.47;;;;;;;;;;4989830;28;20062;-81
2023/05/05 03:43:03;;;;;;;8.45;4.72;;;;;;;;;;5012757;28;20025;-81
2023/05/05 03:45:29;;;;;;;10.50;5.25;;;;;;;;;;5009536;28;20467;-81
2023/05/05 03:47:55;;;;;;;7.18;5.20;;;;;;;;;;5004076;28;20034;-81
2023/05/05 03:50:23;;;;;;;13.60;4.28;;;;;;;;;;5009351;28;20607;-82
2023/05/05 03:52:49;;;;;;;10.88;4.38;;;;;;;;;;5008757;28;20408;-81
2023/05/05 03:55:15;;;;;;;9.05;4.97;;;;;;;;;;4990763;28;20049;-81
2023/05/05 03:57:41;;;;;;;11.43;4.85;;;;;;;;;;4994685;28;20530;-81
2023/05/05 04:00:10;;;;;;;9.23;5.00;;;;;;;;;;4985508;28;20045;-81
2023/05/05 04:02:36;;;;;;;12.57;4.97;;;;;;;;;;4991728;28;20049;-81
2023/05/05 04:05:02;;;;;;;10.80;4.70;;;;;;;;;;5009716;28;20573;-80
2023/05/05 04:07:28;;;;;;;9.80;5.30;;;;;;;;;;5006636;28;20038;-82
2023/05/05 04:09:55;;;;;;;8.95;5.30;;;;;;;;;;5008014;28;20534;-83
2023/05/05 04:12:20;;;;;;;12.15;5.80;;;;;;;;;;4968430;28;20034;-87
2023/05/05 04:14:46;;;;;;;10.35;5.63;;;;;;;;;;5004482;28;20041;-88
2023/05/05 04:17:12;;;;;;;11.57;6.57;;;;;;;;;;4982117;28;20100;-87
2023/05/05 04:19:38;;;;;;;11.40;6.78;;;;;;;;;;5001000;28;20042;-85
2023/05/05 04:22:04;;;;;;;12.57;6.03;;;;;;;;;;5002427;28;20065;-83
2023/05/05 04:24:30;;;;;;;8.27;5.88;;;;;;;;;;5002936;28;20702;-83
2023/05/05 04:26:57;;;;;;;14.60;6.32;;;;;;;;;;5002068;28;20160;-82
2023/05/05 04:29:23;;;;;;;9.52;6.57;;;;;;;;;;5006821;28;20042;-82
2023/05/05 04:31:49;;;;;;;9.77;6.38;;;;;;;;;;4988427;28;20046;-83
2023/05/05 04:34:15;;;;;;;15.68;7.90;;;;;;;;;;5001714;28;20403;-83
2023/05/05 04:36:41;;;;;;;15.07;7.78;;;;;;;;;;4969605;28;20073;-82
2023/05/05 04:39:07;;;;;;;11.45;7.60;;;;;;;;;;5003769;28;20079;-83
2023/05/05 04:41:33;;;;;;;15.02;6.95;;;;;;;;;;5001991;28;20033;-82
2023/05/05 04:43:59;;;;;;;12.57;6.68;;;;;;;;;;4984420;28;20052;-84
2023/05/05 04:46:25;;;;;;;13.27;8.27;;;;;;;;;;5002327;28;20033;-82
2023/05/05 04:48:51;;;;;;;13.93;8.68;;;;;;;;;;5001999;28;20030;-82
2023/05/05 04:51:17;;;;;;;9.88;7.13;;;;;;;;;;4986323;28;20057;-83
2023/05/05 04:53:44;;;;;;;11.80;7.55;;;;;;;;;;5001576;28;20034;-82
2023/05/05 04:56:09;;;;;;;10.80;6.85;;;;;;;;;;5000146;28;20033;-82
2023/05/05 04:58:35;;;;;;;14.35;7.72;;;;;;;;;;5003343;28;20064;-83
2023/05/05 05:01:02;;;;;;;11.38;6.85;;;;;;;;;;4986961;28;20103;-83
2023/05/05 05:03:28;;;;;;;14.35;7.47;;;;;;;;;;4983638;28;20440;-84
2023/05/05 05:05:54;;;;;;;15.60;6.78;;;;;;;;;;4995636;28;20113;-82
2023/05/05 05:08:20;;;;;;;10.70;7.60;;;;;;;;;;4991587;28;20046;-87
2023/05/05 05:10:46;;;;;;;10.43;7.32;;;;;;;;;;4987771;28;20439;-86
2023/05/05 05:13:12;;;;;;;11.48;6.82;;;;;;;;;;4977147;28;20140;-87
2023/05/05 05:15:38;;;;;;;18.45;7.95;;;;;;;;;;4974919;28;20578;-87
2023/05/05 05:18:05;;;;;;;14.52;7.97;;;;;;;;;;4986922;28;20054;-86
2023/05/05 05:20:31;;;;;;;16.27;8.27;;;;;;;;;;4999902;28;20037;-84
2023/05/05 05:22:57;;;;;;;11.15;7.65;;;;;;;;;;5003187;28;20040;-84
2023/05/05 05:25:23;;;;;;;17.65;8.95;;;;;;;;;;5010284;28;20087;-84
2023/05/05 05:27:49;;;;;;;15.73;11.02;;;;;;;;;;4989127;28;20043;-85
2023/05/05 05:30:15;;;;;;;14.90;8.43;;;;;;;;;;4998998;28;20057;-80
2023/05/05 05:32:41;;;;;;;18.45;9.30;;;;;;;;;;5000452;28;20034;-77
2023/05/05 05:35:08;;;;;;;10.65;8.20;;;;;;;;;;4979191;28;20041;-80
2023/05/05 05:37:34;;;;;;;14.27;7.82;;;;;;;;;;4998528;28;20038;-79
2023/05/05 05:40:00;;;;;;;11.85;7.43;;;;;;;;;;5002333;28;20533;-79
2023/05/05 05:42:26;;;;;;;13.57;8.15;;;;;;;;;;4998708;28;20029;-82
2023/05/05 05:44:52;;;;;;;12.77;8.43;;;;;;;;;;4981892;28;20483;-79
2023/05/05 05:47:18;;;;;;;15.68;8.45;;;;;;;;;;4999009;28;20022;-77
2023/05/05 05:49:44;;;;;;;12.30;8.93;;;;;;;;;;4998112;28;20042;-78
2023/05/05 05:52:10;;;;;;;14.00;8.10;;;;;;;;;;5000522;28;20057;-78
2023/05/05 05:54:36;;;;;;;10.45;8.05;;;;;;;;;;4998777;28;20030;-78
2023/05/05 05:57:02;;;;;;;23.55;14.85;;;;;;;;;;4990677;28;20391;-80
2023/05/05 05:59:28;;;;;;;13.63;8.07;;;;;;;;;;4998363;28;20109;-77
2023/05/05 06:01:55;;;;;;;15.90;8.30;;;;;;;;;;5003368;28;20477;-78
2023/05/05 06:04:21;;;;;;;10.60;8.07;;;;;;;;;;5003986;28;20512;-87
2023/05/05 06:06:47;;;;;;;13.20;8.10;;;;;;;;;;5003337;28;20116;-91
2023/05/05 06:09:13;;;;;;;10.15;7.20;;;;;;;;;;4985424;28;20038;-95
2023/05/05 06:11:39;;;;;;;12.13;8.02;;;;;;;;;;5004108;28;20034;-93
2023/05/05 06:14:05;;;;;;;13.52;8.65;;;;;;;;;;4998208;28;20677;-86
2023/05/05 06:16:31;;;;;;;13.57;9.23;;;;;;;;;;4995699;28;20038;-90
2023/05/05 06:18:57;;;;;;;14.35;8.10;;;;;;;;;;4996958;28;20038;-90
2023/05/05 06:21:23;;;;;;;14.13;8.05;;;;;;;;;;4999008;28;20488;-81
2023/05/05 06:23:49;;;;;;;11.38;6.93;;;;;;;;;;5008179;28;20113;-76
2023/05/05 06:26:16;;;;;;;12.95;6.80;;;;;;;;;;5008875;28;20647;-76
2023/05/05 06:28:42;;;;;;;14.48;9.02;;;;;;;;;;4999975;28;20041;-75
2023/05/05 06:31:08;;;;;;;25.15;16.23;;;;;;;;;;5001840;28;20049;-76
2023/05/05 06:33:34;;;;;;;9.77;7.68;;;;;;;;;;5005043;28;20431;-76
2023/05/05 06:36:00;;;;;;;10.63;6.00;;;;;;;;;;5005518;28;20087;-76
2023/05/05 06:38:26;;;;;;;11.55;6.22;;;;;;;;;;4990283;28;20116;-76
2023/05/05 06:40:52;;;;;;;13.27;6.60;;;;;;;;;;4999734;28;20068;-77
2023/05/05 06:43:18;;;;;;;10.80;6.22;;;;;;;;;;5000157;28;20109;-74
2023/05/05 06:45:44;;;;;;;11.00;6.32;;;;;;;;;;5002373;28;20022;-76
2023/05/05 06:48:10;;;;;;;7.40;6.68;;;;;;;;;;4986449;28;20033;-77
2023/05/05 06:50:36;;;;;;;11.48;6.10;;;;;;;;;;4995209;28;20471;-80
2023/05/05 06:53:02;;;;;;;14.32;5.60;;;;;;;;;;4998276;28;20027;-76
2023/05/05 06:55:28;;;;;;;7.22;5.78;;;;;;;;;;5004293;28;20037;-77
2023/05/05 06:57:54;;;;;;;13.30;5.95;;;;;;;;;;5001867;28;20029;-78
2023/05/05 07:00:21;;;;;;;11.48;5.90;;;;;;;;;;5004804;28;20107;-77
2023/05/05 07:02:47;;;;;;;13.82;9.55;;;;;;;;;;5008426;28;20065;-75
2023/05/05 07:05:13;;;;;;;15.70;8.27;;;;;;;;;;5012681;28;20037;-76
2023/05/05 07:07:40;;;;;;;9.30;5.88;;;;;;;;;;5011331;28;20483;-76
2023/05/05 07:10:08;;;;;;;7.25;5.35;;;;;;;;;;5002235;28;20035;-76
2023/05/05 07:12:34;;;;;;;9.55;6.30;;;;;;;;;;4996558;28;20065;-76
2023/05/05 07:15:00;;;;;;;7.82;5.78;;;;;;;;;;4995700;28;20069;-76
2023/05/05 07:17:26;;;;;;;10.88;6.03;;;;;;;;;;4999814;28;20031;-76
2023/05/05 07:19:53;;;;;;;11.00;7.88;;;;;;;;;;5005466;28;20034;-89
2023/05/05 07:22:19;;;;;;;14.40;7.10;;;;;;;;;;5004128;28;20344;-85
2023/05/05 07:24:45;;;;;;;9.10;6.82;;;;;;;;;;4984115;28;20460;-77
2023/05/05 07:27:11;;;;;;;9.27;6.88;;;;;;;;;;4990364;28;20064;-77
2023/05/05 07:29:37;;;;;;;11.30;6.72;;;;;;;;;;5010195;28;20076;-78
2023/05/05 07:32:04;;;;;;;10.13;6.35;;;;;;;;;;5010891;28;20109;-78
2023/05/05 07:34:33;;;;;;;7.90;6.03;;;;;;;;;;4994963;28;20041;-78
2023/05/05 07:36:59;;;;;;;8.00;6.63;;;;;;;;;;5012032;28;20041;-78
2023/05/05 07:39:25;;;;;;;7.47;6.20;;;;;;;;;;4996184;28;20061;-78
2023/05/05 07:41:51;;;;;;;9.70;7.25;;;;;;;;;;5006551;28;20030;-77
2023/05/05 07:44:17;;;;;;;10.05;6.60;;;;;;;;;;5008427;28;20026;-77
2023/05/05 07:46:43;;;;;;;8.35;6.45;;;;;;;;;;5005564;28;20029;-76
2023/05/05 07:49:09;;;;;;;11.55;7.03;;;;;;;;;;5004133;28;20679;-76
2023/05/05 07:51:35;;;;;;;8.45;6.35;;;;;;;;;;5006687;28;20391;-77
2023/05/05 07:54:01;;;;;;;373.95;264.27;;;;;;;;;;5002970;28;20076;-76
2023/05/05 07:56:27;;;;;;;30.35;19.92;;;;;;;;;;5007567;28;20048;-74
2023/05/05 07:58:53;;;;;;;12.85;7.15;;;;;;;;;;5006614;28;20041;-75
2023/05/05 08:01:19;;;;;;;14.77;7.47;;;;;;;;;;5004175;28;20459;-76
2023/05/05 08:03:45;;;;;;;14.00;8.23;;;;;;;;;;5009002;28;20034;-82
2023/05/05 08:06:20;;;;;;;10.13;6.55;;;;;;;;;;4997702;28;20672;-81
2023/05/05 08:08:47;;;;;;;11.52;7.30;;;;;;;;;;5009569;28;20033;-82
2023/05/05 08:11:13;;;;;;;12.55;7.45;;;;;;;;;;5021229;28;20049;-81
2023/05/05 08:13:41;;;;;;;12.93;7.88;;;;;;;;;;5009939;28;20479;-81
2023/05/05 08:16:07;;;;;;;10.18;7.47;;;;;;;;;;5004536;28;20025;-82
2023/05/05 08:18:36;;;;;;;9.20;7.38;;;;;;;;;;5010332;28;20045;-82
2023/05/05 08:21:02;;;;;;;13.40;7.97;;;;;;;;;;5007241;28;20057;-81
2023/05/05 08:23:29;;;;;;;9.95;7.20;;;;;;;;;;5005548;28;20025;-80
2023/05/05 08:25:55;;;;;;;15.63;8.38;;;;;;;;;;5007975;28;20034;-81
2023/05/05 08:28:21;;;;;;;12.68;8.75;;;;;;;;;;5009290;28;20364;-82
2023/05/05 08:30:48;;;;;;;13.50;8.90;;;;;;;;;;5007259;28;20514;-81
2023/05/05 08:33:15;;;;;;;14.48;8.80;;;;;;;;;;5009120;28;20030;-82
2023/05/05 08:35:41;;;;;;;11.23;8.10;;;;;;;;;;5008863;28;20033;-81
2023/05/05 08:38:07;;;;;;;16.05;8.68;;;;;;;;;;5010741;28;20033;-81
2023/05/05 08:40:33;;;;;;;13.65;9.50;;;;;;;;;;5003681;28;20134;-82
2023/05/05 08:43:00;;;;;;;15.90;9.80;;;;;;;;;;5001134;28;20045;-81
2023/05/05 08:45:28;;;;;;;15.43;10.30;;;;;;;;;;4991561;28;20661;-82
2023/05/05 08:47:57;;;;;;;14.65;9.82;;;;;;;;;;5010932;28;20041;-81
2023/05/05 08:50:27;;;;;;;16.20;9.77;;;;;;;;;;4989376;28;20108;-80
2023/05/05 08:52:53;;;;;;;16.08;11.13;;;;;;;;;;4994701;28;20034;-81
2023/05/05 08:55:20;;;;;;;18.33;10.50;;;;;;;;;;4964200;28;20121;-82
2023/05/05 08:57:50;;;;;;;11.40;9.70;;;;;;;;;;5008937;28;20462;-82
2023/05/05 09:00:18;;;;;;;15.45;11.05;;;;;;;;;;5006121;28;20064;-82
2023/05/05 09:02:44;;;;;;;17.83;11.70;;;;;;;;;;4989664;28;20391;-82
2023/05/05 09:05:10;;;;;;;17.70;12.52;;;;;;;;;;5007982;28;20030;-81
2023/05/05 09:07:36;;;;;;;17.23;13.85;;;;;;;;;;5000484;28;20030;-82
2023/05/05 09:10:05;;;;;;;16.92;11.85;;;;;;;;;;5008798;28;20042;-81
2023/05/05 09:12:32;;;;;;;19.95;12.90;;;;;;;;;;4986387;28;20042;-81
2023/05/05 09:15:02;;;;;;;19.70;12.70;;;;;;;;;;5005541;28;20065;-82
2023/05/05 09:17:28;;;;;;;20.30;12.85;;;;;;;;;;4988999;28;20038;-82
2023/05/05 09:20:03;;;;;;;19.98;12.60;;;;;;;;;;4983706;28;20025;-81
2023/05/05 09:22:36;;;;;;;15.68;12.05;;;;;;;;;;5000100;28;20033;-81
2023/05/05 09:25:03;;;;;;;18.02;11.52;;;;;;;;;;5003611;28;20029;-81
2023/05/05 09:27:29;;;;;;;15.25;9.18;;;;;;;;;;4989358;28;20119;-82
2023/05/05 09:29:55;;;;;;;15.73;9.35;;;;;;;;;;5007246;28;20034;-82
2023/05/05 09:32:21;;;;;;;16.15;10.35;;;;;;;;;;5006953;28;20038;-82
2023/05/05 09:35:14;;;;;;;13.27;10.43;;;;;;;;;;4988130;28;20479;-82
2023/05/05 09:37:40;;;;;;;11.38;9.48;;;;;;;;;;4997686;28;20046;-82
2023/05/05 09:40:08;;;;;;;16.38;9.43;;;;;;;;;;5009785;28;20077;-82
2023/05/05 09:42:35;;;;;;;13.82;10.43;;;;;;;;;;5002268;28;20061;-82
2023/05/05 09:45:01;;;;;;;11.82;9.38;;;;;;;;;;4994577;28;20508;-82
2023/05/05 09:47:34;;;;;;;14.13;12.20;;;;;;;;;;5008972;28;20044;-84
2023/05/05 09:50:00;;;;;;;17.52;12.55;;;;;;;;;;5010317;28;20738;-86
2023/05/05 09:52:27;;;;;;;18.73;12.10;;;;;;;;;;4991876;28;20111;-82
2023/05/05 09:54:55;;;;;;;17.10;12.25;;;;;;;;;;5008104;28;20029;-80
2023/05/05 09:57:28;;;;;;;18.13;12.95;;;;;;;;;;5003626;28;20121;-75
2023/05/05 09:59:58;;;;;;;18.48;14.27;;;;;;;;;;5003001;28;20038;-80
2023/05/05 10:02:34;;;;;;;17.33;13.05;;;;;;;;;;5002018;28;20498;-80
2023/05/05 10:05:11;;;;;;;18.15;12.38;;;;;;;;;;4981969;28;20022;-79
2023/05/05 10:07:37;;;;;;;15.43;10.10;;;;;;;;;;4994145;28;20033;-80
2023/05/05 10:10:05;;;;;;;13.77;10.32;;;;;;;;;;5000904;28;20037;-80
2023/05/05 10:12:31;;;;;;;14.20;10.15;;;;;;;;;;4999559;28;20487;-81
2023/05/05 10:15:01;;;;;;;15.48;10.07;;;;;;;;;;5004964;28;20018;-81
2023/05/05 10:17:30;;;;;;;11.50;8.43;;;;;;;;;;5002349;28;20026;-80
2023/05/05 10:19:58;;;;;;;13.50;8.70;;;;;;;;;;5002433;28;20037;-78
2023/05/05 10:22:24;;;;;;;10.77;7.75;;;;;;;;;;4972419;28;20038;-78
2023/05/05 10:24:57;;;;;;;10.73;7.28;;;;;;;;;;5020142;28;20283;-76
2023/05/05 10:27:24;;;;;;;11.00;7.50;;;;;;;;;;4999588;28;20108;-78
2023/05/05 10:29:59;;;;;;;10.30;6.57;;;;;;;;;;5006042;28;20042;-78
2023/05/05 10:32:27;;;;;;;10.75;6.70;;;;;;;;;;5003524;28;20472;-78
2023/05/05 10:34:56;;;;;;;12.23;6.63;;;;;;;;;;5006297;28;20372;-79
2023/05/05 10:37:22;;;;;;;10.02;6.40;;;;;;;;;;5003404;28;20022;-78
2023/05/05 10:39:52;;;;;;;10.07;6.85;;;;;;;;;;4994636;28;20305;-78
2023/05/05 10:42:19;;;;;;;10.23;7.18;;;;;;;;;;5002068;28;20054;-80
2023/05/05 10:44:47;;;;;;;15.38;9.30;;;;;;;;;;5005140;28;20026;-83
2023/05/05 10:47:14;;;;;;;15.15;7.97;;;;;;;;;;5006582;28;20112;-83
2023/05/05 10:49:46;;;;;;;10.82;6.63;;;;;;;;;;5006515;28;20037;-82
2023/05/05 10:52:17;;;;;;;11.70;5.95;;;;;;;;;;5006235;28;20104;-81
2023/05/05 10:55:03;;;;;;;9.82;6.00;;;;;;;;;;4996086;28;21242;-81
2023/05/05 10:57:32;;;;;;;8.90;5.68;;;;;;;;;;4999830;28;20041;-82
2023/05/05 10:59:58;;;;;;;9.13;5.95;;;;;;;;;;5007364;28;20034;-82
2023/05/05 11:02:24;;;;;;;9.95;5.57;;;;;;;;;;5000041;28;20427;-82
2023/05/05 11:05:13;;;;;;;10.77;5.45;;;;;;;;;;5004455;28;20101;-82
2023/05/05 11:07:39;;;;;;;10.98;4.85;;;;;;;;;;5004079;28;20037;-82
2023/05/05 11:10:06;;;;;;;8.55;4.38;;;;;;;;;;5020059;28;20049;-82
2023/05/05 11:12:33;;;;;;;7.53;4.43;;;;;;;;;;5009420;28;20034;-82
2023/05/05 11:15:27;;;;;;;7.75;4.95;;;22.10;99.90;;;;;;5004440;28;20444;-82
2023/05/05 11:17:54;;;;;;;8.85;5.68;;;;;;;;;;5019954;28;20033;-81
2023/05/05 11:20:35;;;;;;;8.60;6.03;;;;;;;;;;5004258;28;20042;-81
2023/05/05 11:23:01;;;;;;;10.73;6.30;;;;;;;;;;5008491;28;20041;-81
2023/05/05 11:25:39;;;;;;;10.90;6.20;;;;;;;;;;5001425;28;20040;-81
2023/05/05 11:28:05;;;;;;;8.55;6.70;;;;;;;;;;5003866;28;20297;-81
2023/05/05 11:30:31;;;;;;;9.85;6.70;;;;;;;;;;5001198;28;20092;-81
2023/05/05 11:33:16;;;;;;;14.02;7.88;;;;;;;;;;5008931;28;20040;-81
2023/05/05 11:35:55;;;;;;;11.32;7.10;;;;;;;;;;5008833;28;20026;-81
2023/05/05 11:38:44;;;;;;;9.82;7.15;;;;;;;;;;5008438;28;20046;-82
2023/05/05 11:41:12;;;;;;;10.55;7.20;;;;;;;;;;5000243;28;20152;-82
2023/05/05 11:43:40;;;;;;;8.70;5.80;;;;;;;;;;5009121;28;20033;-82
2023/05/05 11:46:16;;;;;;;7.15;4.85;;;;;;;;;;5007162;28;20026;-81
2023/05/05 11:48:45;;;;;;;7.88;5.90;;;;;;;;;;5009779;28;20524;-81
2023/05/05 11:51:15;;;;;;;8.50;5.75;;;;;;;;;;5010038;28;20113;-82
2023/05/05 11:53:42;;;;;;;7.15;5.63;;;;;;;;;;5009578;28;20018;-82
2023/05/05 11:56:09;;;;;;;7.40;5.55;;;;;;;;;;5004699;28;20069;-82
2023/05/05 11:58:35;;;;;;;8.60;6.07;;;;;;;;;;5008068;28;20046;-82
2023/05/05 12:01:04;;;;;;;7.50;5.50;;;;;;;;;;5007712;28;20034;-82
2023/05/05 12:03:34;;;;;;;8.82;6.18;;;;;;;;;;5007526;28;20048;-82
2023/05/05 12:06:00;;;;;;;8.50;6.30;;;;;;;;;;5006311;28;20061;-82
2023/05/05 12:08:27;;;;;;;8.85;7.35;;;;;;;;;;5010151;28;20064;-81
2023/05/05 12:10:53;;;;;;;8.32;5.85;;;;;;;;;;5006692;28;20112;-81
2023/05/05 12:13:19;;;;;;;7.72;5.05;;;;;;;;;;5008317;28;20129;-81
2023/05/05 12:15:45;;;;;;;7.85;5.43;;;;;;;;;;5002189;28;20367;-81
2023/05/05 12:18:20;;;;;;;8.38;5.07;;;;;;;;;;5007776;28;20029;-81
2023/05/05 12:20:46;;;;;;;9.38;4.50;;;;;;;;;;5007139;28;20029;-79
2023/05/05 12:23:13;;;;;;;7.20;5.28;;;;;;;;;;5009171;28;20028;-81
2023/05/05 12:25:39;;;;;;;7.72;4.70;;;;;;;;;;4982485;28;20044;-81
2023/05/05 12:28:09;;;;;;;8.00;4.65;;;;;;;;;;4999036;28;20427;-82
2023/05/05 12:30:35;;;;;;;7.70;4.82;;;;;;;;;;5009189;28;20028;-82
2023/05/05 12:33:02;;;;;;;8.02;4.25;;;;;;;;;;5006559;28;20060;-82
2023/05/05 12:35:29;;;;;;;5.20;3.90;;;;;;;;;;5009862;28;20029;-83
2023/05/05 12:37:55;;;;;;;5.40;3.70;;;;;;;;;;5006273;28;20036;-82
2023/05/05 12:40:39;;;;;;;7.93;4.05;;;;;;;;;;5007380;28;20046;-82
2023/05/05 12:43:05;;;;;;;4.88;3.60;;;;;;;;;;4998583;28;20018;-83
2023/05/05 12:45:31;;;;;;;6.93;3.97;;;;;;;;;;4983620;28;20022;-83
2023/05/05 12:47:57;;;;;;;7.05;3.78;;;;;;;;;;5007785;28;20100;-83
2023/05/05 12:50:30;;;;;;;7.68;4.22;;;;;;;;;;5007758;28;20034;-83
2023/05/05 12:52:56;;;;;;;6.07;3.75;;;;;;;;;;5006544;28;20026;-83
2023/05/05 12:55:38;;;;;;;9.50;4.90;;;;;;;;;;5008946;28;20026;-83
2023/05/05 12:58:04;;;;;;;6.90;4.32;;;;;;;;;;4988534;28;20026;-83
2023/05/05 13:00:30;;;;;;;7.55;4.28;;;;;;;;;;5007526;28;20030;-83
2023/05/05 13:02:56;;;;;;;5.93;3.25;;;;;;;;;;5005314;28;20026;-83
2023/05/05 13:05:30;;;;;;;4.25;3.05;;;;;;;;;;5003441;28;20053;-82
2023/05/05 13:07:56;;;;;;;8.93;3.40;;;;;;;;;;5006800;28;20026;-83
2023/05/05 13:10:23;;;;;;;4.10;2.50;;;;;;;;;;5008530;28;20060;-83
2023/05/05 13:12:50;;;;;;;7.55;2.85;;;;;;;;;;5007602;28;20034;-84
2023/05/05 13:15:16;;;;;;;4.10;1.80;;;;;;;;;;5005137;28;20117;-83
2023/05/05 13:17:42;;;;;;;3.33;1.80;;;;;;;;;;5001221;28;20048;-77
2023/05/05 13:20:09;;;;;;;6.30;2.00;;;;;;;;;;4993643;28;20058;-84
2023/05/05 13:22:35;;;;;;;4.20;1.75;;;;;;;;;;4983852;28;20032;-89
2023/05/05 13:25:02;;;;;;;4.35;1.45;;;;;;;;;;4987415;28;20435;-86
2023/05/05 13:27:28;;;;;;;5.18;1.88;;;;;;;;;;4998866;28;20038;-86
2023/05/05 13:29:54;;;;;;;5.30;1.77;;;;;;;;;;4996238;28;20045;-87
2023/05/05 13:32:20;;;;;;;3.50;2.00;;;;;;;;;;4998584;28;20491;-87
2023/05/05 13:34:46;;;;;;;5.95;1.90;;;;;;;;;;4998688;28;20038;-92
2023/05/05 13:37:12;;;;;;;10.38;3.35;;;;;;;;;;4998284;28;20034;-87
2023/05/05 13:39:38;;;;;;;4.85;2.03;;;;;;;;;;4994590;28;20503;-90
2023/05/05 13:42:04;;;;;;;5.97;2.85;;;;;;;;;;4988824;28;20103;-89
2023/05/05 13:44:30;;;;;;;4.88;2.67;;;;;;;;;;5011368;28;20127;-88
2023/05/05 13:46:56;;;;;;;10.82;3.03;;;;;;;;;;4987280;28;20493;-89
2023/05/05 13:49:22;;;;;;;6.65;3.20;;;;;;;;;;5001795;28;20033;-89
2023/05/05 13:51:48;;;;;;;8.95;4.22;;;;;;;;;;5005029;28;20026;-89
2023/05/05 13:54:18;;;;;;;9.40;3.75;;;;;;;;;;4981734;28;20041;-91
2023/05/05 13:56:44;;;;;;;5.03;3.75;;;;;;;;;;5004064;28;20036;-96
2023/05/05 13:59:10;;;;;;;5.47;3.17;;;;;;;;;;4998005;28;20042;-90
2023/05/05 14:01:36;;;;;;;6.10;3.42;;;;;;;;;;4996640;28;20088;-87
2023/05/05 14:04:02;;;;;;;5.35;3.67;;;;;;;;;;5004262;28;20041;-83
2023/05/05 14:06:28;;;;;;;10.32;3.60;;;;;;;;;;5001330;28;20038;-80
2023/05/05 14:08:54;;;;;;;9.20;4.00;;;;;;;;;;4984609;28;20038;-85
2023/05/05 14:11:20;;;;;;;10.35;4.05;;;;;;;;;;4995315;28;20046;-83
2023/05/05 14:13:46;;;;;;;9.00;3.90;;;;;;;;;;4996827;28;20071;-86
2023/05/05 14:16:13;;;;;;;14.07;4.32;;;;;;;;;;5001314;28;20161;-83
2023/05/05 14:18:39;;;;;;;13.70;6.65;;;;;;;;;;4999097;28;20041;-79
2023/05/05 14:21:05;;;;;;;5.50;3.90;;;;;;;;;;5002218;28;20025;-83
2023/05/05 14:23:31;;;;;;;8.10;3.50;;;;;;;;;;5007985;28;20500;-83
2023/05/05 14:25:57;;;;;;;10.27;2.75;;;;;;;;;;5009470;28;20042;-82
2023/05/05 14:28:23;;;;;;;7.85;3.20;;;;;;;;;;4971278;28;20047;-84
2023/05/05 14:30:49;;;;;;;6.32;2.53;;;;;;;;;;4974036;28;20064;-84
2023/05/05 14:33:15;;;;;;;5.70;1.83;;;;;;;;;;4988301;28;20089;-85
2023/05/05 14:35:41;;;;;;;4.43;1.88;;;;;;;;;;5006863;28;20054;-83
2023/05/05 14:38:07;;;;;;;2.65;1.63;;;;;;;;;;5010116;28;20111;-82